sensor_id;sensor_type;location;lat;lon;timestamp;pressure;altitude;pressure_sealevel;temperature;humidity
65897;BME280;52677;50.898;10.854;2022-10-22T00:01:20;98115.09;;;10.63;100.00
65897;BME280;52677;50.898;10.854;2022-10-22T00:03:22;98100.88;;;10.61;100.00
65897;BME280;52677;50.898;10.854;2022-10-22T00:05:22;98117.47;;;10.64;100.00
65897;BME280;52677;50.898;10.854;2022-10-22T00:07:22;98111.16;;;10.64;100.00
65897;BME280;52677;50.898;10.854;2022-10-22T00:09:23;98109.56;;;10.63;100.00
65897;BME280;52677;50.898;10.854;2022-10-22T00:11:23;98110.38;;;10.63;100.00
65897;BME280;52677;50.898;10.854;2022-10-22T00:13:24;98111.16;;;10.64;100.00
65897;BME280;52677;50.898;10.854;2022-10-22T00:15:24;98109.56;;;10.63;100.00
65897;BME280;52677;50.898;10.854;2022-10-22T00:17:25;98108.75;;;10.59;100.00
65897;BME280;52677;50.898;10.854;2022-10-22T00:19:26;98109.56;;;10.59;100.00
65897;BME280;52677;50.898;10.854;2022-10-22T00:21:26;98114.66;;;10.57;100.00
65897;BME280;52677;50.898;10.854;2022-10-22T00:23:28;98092.94;;;10.56;100.00
65897;BME280;52677;50.898;10.854;2022-10-22T00:25:28;98101.22;;;10.56;100.00
65897;BME280;52677;50.898;10.854;2022-10-22T00:27:28;98097.28;;;10.53;100.00
65897;BME280;52677;50.898;10.854;2022-10-22T00:29:29;98102.41;;;10.51;100.00
65897;BME280;52677;50.898;10.854;2022-10-22T00:31:29;98100.00;;;10.50;100.00
65897;BME280;52677;50.898;10.854;2022-10-22T00:33:30;98113.44;;;10.48;100.00
65897;BME280;52677;50.898;10.854;2022-10-22T00:35:31;98121.72;;;10.48;100.00
65897;BME280;52677;50.898;10.854;2022-10-22T00:37:32;98124.09;;;10.46;100.00
65897;BME280;52677;50.898;10.854;2022-10-22T00:39:32;98125.69;;;10.47;100.00
65897;BME280;52677;50.898;10.854;2022-10-22T00:41:32;98117.34;;;10.39;100.00
65897;BME280;52677;50.898;10.854;2022-10-22T00:43:33;98128.41;;;10.39;100.00
65897;BME280;52677;50.898;10.854;2022-10-22T00:45:33;98129.59;;;10.42;100.00
65897;BME280;52677;50.898;10.854;2022-10-22T00:47:54;98130.03;;;10.44;100.00
65897;BME280;52677;50.898;10.854;2022-10-22T00:49:56;98130.78;;;10.41;100.00
65897;BME280;52677;50.898;10.854;2022-10-22T00:51:57;98134.72;;;10.40;100.00
65897;BME280;52677;50.898;10.854;2022-10-22T00:54:04;98130.78;;;10.41;100.00
65897;BME280;52677;50.898;10.854;2022-10-22T00:56:06;98138.72;;;10.43;100.00
65897;BME280;52677;50.898;10.854;2022-10-22T00:58:08;98148.16;;;10.41;100.00
65897;BME280;52677;50.898;10.854;2022-10-22T01:00:09;98165.94;;;10.40;100.00
65897;BME280;52677;50.898;10.854;2022-10-22T01:02:09;98165.53;;;10.38;100.00
65897;BME280;52677;50.898;10.854;2022-10-22T01:04:10;98172.25;;;10.37;100.00
65897;BME280;52677;50.898;10.854;2022-10-22T01:06:15;98179.38;;;10.42;100.00
65897;BME280;52677;50.898;10.854;2022-10-22T01:09:10;98158.84;;;10.43;100.00
65897;BME280;52677;50.898;10.854;2022-10-22T01:10:58;98145.81;;;10.44;100.00
65897;BME280;52677;50.898;10.854;2022-10-22T01:13:26;98143.06;;;10.47;100.00
65897;BME280;52677;50.898;10.854;2022-10-22T01:15:37;98143.47;;;10.46;100.00
65897;BME280;52677;50.898;10.854;2022-10-22T01:17:58;98146.63;;;10.44;100.00
65897;BME280;52677;50.898;10.854;2022-10-22T01:20:12;98149.00;;;10.46;100.00
65897;BME280;52677;50.898;10.854;2022-10-22T01:22:25;98136.31;;;10.41;100.00
65897;BME280;52677;50.898;10.854;2022-10-22T01:24:37;98134.75;;;10.44;100.00
65897;BME280;52677;50.898;10.854;2022-10-22T01:29:09;98134.78;;;10.47;100.00
65897;BME280;52677;50.898;10.854;2022-10-22T01:31:12;98134.38;;;10.49;100.00
65897;BME280;52677;50.898;10.854;2022-10-22T01:33:17;98121.34;;;10.46;100.00
65897;BME280;52677;50.898;10.854;2022-10-22T01:35:23;98118.16;;;10.47;100.00
65897;BME280;52677;50.898;10.854;2022-10-22T01:37:27;98117.78;;;10.49;100.00
65897;BME280;52677;50.898;10.854;2022-10-22T01:39:29;98098.03;;;10.47;100.00
65897;BME280;52677;50.898;10.854;2022-10-22T01:41:30;98103.94;;;10.45;100.00
65897;BME280;52677;50.898;10.854;2022-10-22T01:43:30;98094.47;;;10.43;100.00
65897;BME280;52677;50.898;10.854;2022-10-22T01:45:43;98091.25;;;10.40;100.00
65897;BME280;52677;50.898;10.854;2022-10-22T01:54:54;98077.03;;;10.38;100.00
65897;BME280;52677;50.898;10.854;2022-10-22T01:59:21;98064.41;;;10.41;100.00
65897;BME280;52677;50.898;10.854;2022-10-22T02:03:39;98065.19;;;10.38;100.00
65897;BME280;52677;50.898;10.854;2022-10-22T02:05:50;98067.56;;;10.39;100.00
65897;BME280;52677;50.898;10.854;2022-10-22T02:08:02;98072.69;;;10.37;100.00
65897;BME280;52677;50.898;10.854;2022-10-22T02:10:05;98078.22;;;10.37;100.00
65897;BME280;52677;50.898;10.854;2022-10-22T02:12:08;98064.78;;;10.36;100.00
65897;BME280;52677;50.898;10.854;2022-10-22T02:14:10;98056.88;;;10.34;100.00
65897;BME280;52677;50.898;10.854;2022-10-22T02:16:16;98063.59;;;10.37;100.00
65897;BME280;52677;50.898;10.854;2022-10-22T02:18:21;98059.66;;;10.38;100.00
65897;BME280;52677;50.898;10.854;2022-10-22T02:20:26;98062.81;;;10.36;100.00
65897;BME280;52677;50.898;10.854;2022-10-22T02:22:27;98079.00;;;10.38;100.00
65897;BME280;52677;50.898;10.854;2022-10-22T02:24:29;98080.19;;;10.37;100.00
65897;BME280;52677;50.898;10.854;2022-10-22T02:26:34;98076.25;;;10.38;100.00
65897;BME280;52677;50.898;10.854;2022-10-22T02:28:55;98079.00;;;10.34;100.00
65897;BME280;52677;50.898;10.854;2022-10-22T02:31:06;98083.34;;;10.39;100.00
65897;BME280;52677;50.898;10.854;2022-10-22T02:33:44;98088.50;;;10.40;100.00
65897;BME280;52677;50.898;10.854;2022-10-22T02:35:45;98081.78;;;10.41;100.00
65897;BME280;52677;50.898;10.854;2022-10-22T02:37:46;98087.69;;;10.40;100.00
65897;BME280;52677;50.898;10.854;2022-10-22T02:39:47;98085.34;;;10.42;100.00
65897;BME280;52677;50.898;10.854;2022-10-22T02:41:48;98092.84;;;10.41;100.00
65897;BME280;52677;50.898;10.854;2022-10-22T02:43:52;98087.69;;;10.40;100.00
65897;BME280;52677;50.898;10.854;2022-10-22T02:45:52;98091.25;;;10.40;100.00
65897;BME280;52677;50.898;10.854;2022-10-22T02:47:53;98088.88;;;10.39;100.00
65897;BME280;52677;50.898;10.854;2022-10-22T02:49:53;98086.13;;;10.39;100.00
65897;BME280;52677;50.898;10.854;2022-10-22T02:51:53;98095.22;;;10.39;100.00
65897;BME280;52677;50.898;10.854;2022-10-22T02:53:54;98095.22;;;10.39;100.00
65897;BME280;52677;50.898;10.854;2022-10-22T02:55:54;98106.28;;;10.39;100.00
65897;BME280;52677;50.898;10.854;2022-10-22T02:57:55;98104.69;;;10.42;100.00
65897;BME280;52677;50.898;10.854;2022-10-22T02:59:55;98103.50;;;10.39;100.00
65897;BME280;52677;50.898;10.854;2022-10-22T03:01:55;98113.81;;;10.46;100.00
65897;BME280;52677;50.898;10.854;2022-10-22T03:03:55;98109.47;;;10.45;100.00
65897;BME280;52677;50.898;10.854;2022-10-22T03:05:56;98109.47;;;10.49;100.00
65897;BME280;52677;50.898;10.854;2022-10-22T03:07:56;98115.00;;;10.49;100.00
65897;BME280;52677;50.898;10.854;2022-10-22T03:09:56;98113.84;;;10.50;100.00
65897;BME280;52677;50.898;10.854;2022-10-22T03:11:57;98122.56;;;10.52;100.00
65897;BME280;52677;50.898;10.854;2022-10-22T03:13:57;98113.09;;;10.53;100.00
65897;BME280;52677;50.898;10.854;2022-10-22T03:15:57;98112.69;;;10.54;100.00
65897;BME280;52677;50.898;10.854;2022-10-22T03:17:57;98110.31;;;10.56;100.00
65897;BME280;52677;50.898;10.854;2022-10-22T03:19:58;98105.97;;;10.55;100.00
65897;BME280;52677;50.898;10.854;2022-10-22T03:22:01;98107.56;;;10.56;100.00
65897;BME280;52677;50.898;10.854;2022-10-22T03:24:05;98110.31;;;10.56;100.00
65897;BME280;52677;50.898;10.854;2022-10-22T03:26:08;98109.56;;;10.59;100.00
65897;BME280;52677;50.898;10.854;2022-10-22T03:28:10;98112.34;;;10.59;100.00
65897;BME280;52677;50.898;10.854;2022-10-22T03:30:12;98102.41;;;10.58;100.00
65897;BME280;52677;50.898;10.854;2022-10-22T03:32:13;98097.69;;;10.59;100.00
65897;BME280;52677;50.898;10.854;2022-10-22T03:34:13;98091.34;;;10.58;100.00
65897;BME280;52677;50.898;10.854;2022-10-22T03:36:14;98098.06;;;10.57;100.00
65897;BME280;52677;50.898;10.854;2022-10-22T03:38:14;98099.25;;;10.56;100.00
65897;BME280;52677;50.898;10.854;2022-10-22T03:40:15;98095.31;;;10.57;100.00
65897;BME280;52677;50.898;10.854;2022-10-22T03:42:16;98095.72;;;10.59;100.00
65897;BME280;52677;50.898;10.854;2022-10-22T03:44:16;98102.47;;;10.62;100.00
65897;BME280;52677;50.898;10.854;2022-10-22T03:46:18;98105.63;;;10.60;100.00
65897;BME280;52677;50.898;10.854;2022-10-22T03:48:18;98121.03;;;10.65;100.00
65897;BME280;52677;50.898;10.854;2022-10-22T03:50:18;98119.47;;;10.64;100.00
65897;BME280;52677;50.898;10.854;2022-10-22T03:52:19;98125.78;;;10.61;100.00
65897;BME280;52677;50.898;10.854;2022-10-22T03:54:19;98127.31;;;10.58;100.00
65897;BME280;52677;50.898;10.854;2022-10-22T03:56:19;98119.03;;;10.58;100.00
65897;BME280;52677;50.898;10.854;2022-10-22T03:58:19;98116.66;;;10.57;100.00
65897;BME280;52677;50.898;10.854;2022-10-22T04:00:20;98122.56;;;10.59;100.00
65897;BME280;52677;50.898;10.854;2022-10-22T04:02:20;98134.03;;;10.57;100.00
65897;BME280;52677;50.898;10.854;2022-10-22T04:04:20;98142.75;;;10.59;100.00
65897;BME280;52677;50.898;10.854;2022-10-22T04:06:21;98147.91;;;10.61;100.00
65897;BME280;52677;50.898;10.854;2022-10-22T04:08:22;98149.09;;;10.60;100.00
65897;BME280;52677;50.898;10.854;2022-10-22T04:10:22;98161.72;;;10.61;100.00
65897;BME280;52677;50.898;10.854;2022-10-22T04:12:22;98157.38;;;10.60;100.00
65897;BME280;52677;50.898;10.854;2022-10-22T04:14:22;98175.97;;;10.63;100.00
65897;BME280;52677;50.898;10.854;2022-10-22T04:16:23;98177.56;;;10.64;100.00
65897;BME280;52677;50.898;10.854;2022-10-22T04:18:23;98186.28;;;10.69;100.00
65897;BME280;52677;50.898;10.854;2022-10-22T04:20:23;98177.66;;;10.78;100.00
65897;BME280;52677;50.898;10.854;2022-10-22T04:22:24;98183.97;;;10.82;100.00
65897;BME280;52677;50.898;10.854;2022-10-22T04:24:24;98180.47;;;10.85;100.00
65897;BME280;52677;50.898;10.854;2022-10-22T04:26:25;98173.78;;;10.97;100.00
65897;BME280;52677;50.898;10.854;2022-10-22T04:28:25;98172.25;;;11.03;100.00
65897;BME280;52677;50.898;10.854;2022-10-22T04:30:26;98178.19;;;11.05;100.00
65897;BME280;52677;50.898;10.854;2022-10-22T04:32:27;98172.63;;;11.05;100.00
65897;BME280;52677;50.898;10.854;2022-10-22T04:34:27;98171.06;;;11.08;100.00
65897;BME280;52677;50.898;10.854;2022-10-22T04:36:28;98184.13;;;11.07;100.00
65897;BME280;52677;50.898;10.854;2022-10-22T04:38:29;98174.25;;;11.10;100.00
65897;BME280;52677;50.898;10.854;2022-10-22T04:40:29;98199.19;;;11.13;100.00
65897;BME280;52677;50.898;10.854;2022-10-22T04:42:30;98186.13;;;11.14;100.00
65897;BME280;52677;50.898;10.854;2022-10-22T04:44:30;98199.19;;;11.13;100.00
65897;BME280;52677;50.898;10.854;2022-10-22T04:46:33;98181.38;;;11.14;100.00
65897;BME280;52677;50.898;10.854;2022-10-22T04:48:35;98196.09;;;11.29;100.00
65897;BME280;52677;50.898;10.854;2022-10-22T04:50:35;98190.59;;;11.40;100.00
65897;BME280;52677;50.898;10.854;2022-10-22T04:52:35;98192.25;;;11.59;100.00
65897;BME280;52677;50.898;10.854;2022-10-22T04:54:36;98191.88;;;11.67;100.00
65897;BME280;52677;50.898;10.854;2022-10-22T04:56:36;98187.50;;;11.70;100.00
65897;BME280;52677;50.898;10.854;2022-10-22T04:58:37;98188.31;;;11.74;100.00
65897;BME280;52677;50.898;10.854;2022-10-22T05:00:38;98194.66;;;11.78;100.00
65897;BME280;52677;50.898;10.854;2022-10-22T05:02:38;98189.91;;;11.78;100.00
65897;BME280;52677;50.898;10.854;2022-10-22T05:04:42;98185.94;;;11.79;100.00
65897;BME280;52677;50.898;10.854;2022-10-22T05:06:43;98184.00;;;11.80;100.00
65897;BME280;52677;50.898;10.854;2022-10-22T05:08:43;98181.63;;;11.82;100.00
65897;BME280;52677;50.898;10.854;2022-10-22T05:10:44;98185.59;;;11.85;100.00
65897;BME280;52677;50.898;10.854;2022-10-22T05:12:44;98184.81;;;11.88;100.00
65897;BME280;52677;50.898;10.854;2022-10-22T05:14:44;98176.50;;;11.88;100.00
65897;BME280;52677;50.898;10.854;2022-10-22T05:16:44;98191.56;;;11.94;100.00
65897;BME280;52677;50.898;10.854;2022-10-22T05:18:46;98193.94;;;12.06;100.00
65897;BME280;52677;50.898;10.854;2022-10-22T05:20:47;98195.13;;;12.12;100.00
65897;BME280;52677;50.898;10.854;2022-10-22T05:22:47;98202.66;;;12.12;100.00
65897;BME280;52677;50.898;10.854;2022-10-22T05:24:47;98189.59;;;12.12;100.00
65897;BME280;52677;50.898;10.854;2022-10-22T05:26:52;98182.84;;;12.06;100.00
65897;BME280;52677;50.898;10.854;2022-10-22T05:28:52;98177.28;;;12.06;100.00
65897;BME280;52677;50.898;10.854;2022-10-22T05:30:57;98166.19;;;11.99;100.00
65897;BME280;52677;50.898;10.854;2022-10-22T05:32:58;98163.84;;;12.01;100.00
65897;BME280;52677;50.898;10.854;2022-10-22T05:34:58;98163.84;;;12.01;100.00
65897;BME280;52677;50.898;10.854;2022-10-22T05:36:58;98168.59;;;12.11;100.00
65897;BME280;52677;50.898;10.854;2022-10-22T05:38:59;98179.28;;;12.09;100.00
65897;BME280;52677;50.898;10.854;2022-10-22T05:41:00;98178.88;;;12.07;100.00
65897;BME280;52677;50.898;10.854;2022-10-22T05:43:00;98172.16;;;12.04;100.00
65897;BME280;52677;50.898;10.854;2022-10-22T05:45:00;98177.31;;;12.02;100.00
65897;BME280;52677;50.898;10.854;2022-10-22T05:47:01;98169.75;;;11.96;100.00
65897;BME280;52677;50.898;10.854;2022-10-22T05:49:04;98172.94;;;11.94;100.00
65897;BME280;52677;50.898;10.854;2022-10-22T05:51:07;98164.22;;;11.99;100.00
65897;BME280;52677;50.898;10.854;2022-10-22T05:53:08;98192.72;;;11.96;100.00
65897;BME280;52677;50.898;10.854;2022-10-22T05:55:09;98205.03;;;12.02;100.00
65897;BME280;52677;50.898;10.854;2022-10-22T05:57:09;98210.19;;;12.00;100.00
65897;BME280;52677;50.898;10.854;2022-10-22T05:59:10;98214.94;;;12.11;100.00
65897;BME280;52677;50.898;10.854;2022-10-22T06:03:12;98230.38;;;12.08;100.00
65897;BME280;52677;50.898;10.854;2022-10-22T06:05:12;98230.78;;;12.03;100.00
65897;BME280;52677;50.898;10.854;2022-10-22T06:07:13;98227.63;;;12.01;100.00
65897;BME280;52677;50.898;10.854;2022-10-22T06:09:33;98221.63;;;11.99;100.00
65897;BME280;52677;50.898;10.854;2022-10-22T06:11:35;98222.06;;;12.01;100.00
65897;BME280;52677;50.898;10.854;2022-10-22T06:13:35;98224.03;;;12.04;100.00
65897;BME280;52677;50.898;10.854;2022-10-22T06:15:36;98227.59;;;11.97;100.00
65897;BME280;52677;50.898;10.854;2022-10-22T06:17:36;98233.53;;;11.96;100.00
65897;BME280;52677;50.898;10.854;2022-10-22T06:19:36;98234.72;;;11.95;100.00
65897;BME280;52677;50.898;10.854;2022-10-22T06:21:37;98238.28;;;11.92;100.00
65897;BME280;52677;50.898;10.854;2022-10-22T06:23:38;98254.50;;;11.90;100.00
65897;BME280;52677;50.898;10.854;2022-10-22T06:25:39;98260.03;;;11.86;100.00
65897;BME280;52677;50.898;10.854;2022-10-22T06:27:39;98253.69;;;11.82;100.00
65897;BME280;52677;50.898;10.854;2022-10-22T06:29:39;98257.22;;;11.79;100.00
65897;BME280;52677;50.898;10.854;2022-10-22T06:31:40;98257.22;;;11.79;100.00
65897;BME280;52677;50.898;10.854;2022-10-22T06:33:40;98263.97;;;11.81;100.00
65897;BME280;52677;50.898;10.854;2022-10-22T06:35:43;98258.00;;;11.79;100.00
65897;BME280;52677;50.898;10.854;2022-10-22T06:37:44;98261.97;;;11.78;100.00
65897;BME280;52677;50.898;10.854;2022-10-22T06:39:46;98252.47;;;11.76;100.00
65897;BME280;52677;50.898;10.854;2022-10-22T06:41:46;98262.75;;;11.79;100.00
65897;BME280;52677;50.898;10.854;2022-10-22T06:43:47;98258.84;;;11.80;100.00
65897;BME280;52677;50.898;10.854;2022-10-22T06:45:47;98260.03;;;11.86;100.00
65897;BME280;52677;50.898;10.854;2022-10-22T06:47:47;98260.84;;;11.87;100.00
65897;BME280;52677;50.898;10.854;2022-10-22T06:49:48;98262.41;;;11.88;100.00
65897;BME280;52677;50.898;10.854;2022-10-22T06:51:50;98255.69;;;11.85;100.00
65897;BME280;52677;50.898;10.854;2022-10-22T06:53:52;98240.59;;;11.79;100.00
65897;BME280;52677;50.898;10.854;2022-10-22T06:55:52;98236.63;;;11.76;100.00
65897;BME280;52677;50.898;10.854;2022-10-22T06:57:54;98234.22;;;11.75;100.00
65897;BME280;52677;50.898;10.854;2022-10-22T06:59:54;98231.81;;;11.66;100.00
65897;BME280;52677;50.898;10.854;2022-10-22T07:01:54;98252.00;;;11.63;100.00
65897;BME280;52677;50.898;10.854;2022-10-22T07:03:55;98276.16;;;11.66;100.00
65897;BME280;52677;50.898;10.854;2022-10-22T07:05:58;98289.22;;;11.66;100.00
65897;BME280;52677;50.898;10.854;2022-10-22T07:07:59;98301.53;;;11.68;100.00
65897;BME280;52677;50.898;10.854;2022-10-22T07:09:59;98296.38;;;11.67;100.00
65897;BME280;52677;50.898;10.854;2022-10-22T07:11:59;98305.09;;;11.72;100.00
65897;BME280;52677;50.898;10.854;2022-10-22T07:13:59;98300.75;;;11.71;100.00
65897;BME280;52677;50.898;10.854;2022-10-22T07:16:00;98299.94;;;11.67;100.00
65897;BME280;52677;50.898;10.854;2022-10-22T07:18:01;98294.78;;;11.62;100.00
65897;BME280;52677;50.898;10.854;2022-10-22T07:20:03;98306.25;;;11.61;100.00
65897;BME280;52677;50.898;10.854;2022-10-22T07:22:04;98303.44;;;11.57;100.00
65897;BME280;52677;50.898;10.854;2022-10-22T07:24:04;98318.47;;;11.56;100.00
65897;BME280;52677;50.898;10.854;2022-10-22T07:26:06;98337.09;;;11.56;100.00
65897;BME280;52677;50.898;10.854;2022-10-22T07:28:07;98338.28;;;11.54;100.00
65897;BME280;52677;50.898;10.854;2022-10-22T07:30:08;98349.78;;;11.60;100.00
65897;BME280;52677;50.898;10.854;2022-10-22T07:32:08;98346.63;;;11.62;100.00
65897;BME280;52677;50.898;10.854;2022-10-22T07:34:08;98348.59;;;11.65;100.00
65897;BME280;52677;50.898;10.854;2022-10-22T07:36:12;98356.13;;;11.64;100.00
65897;BME280;52677;50.898;10.854;2022-10-22T07:38:16;98363.69;;;11.67;100.00
65897;BME280;52677;50.898;10.854;2022-10-22T07:40:17;98357.75;;;11.72;100.00
65897;BME280;52677;50.898;10.854;2022-10-22T07:42:17;98351.81;;;11.74;100.00
65897;BME280;52677;50.898;10.854;2022-10-22T07:44:17;98355.03;;;11.76;100.00
65897;BME280;52677;50.898;10.854;2022-10-22T07:46:18;98363.69;;;11.74;100.00
65897;BME280;52677;50.898;10.854;2022-10-22T07:48:19;98364.91;;;11.77;100.00
65897;BME280;52677;50.898;10.854;2022-10-22T07:50:19;98364.56;;;11.82;100.00
65897;BME280;52677;50.898;10.854;2022-10-22T07:52:19;98379.25;;;11.86;100.00
65897;BME280;52677;50.898;10.854;2022-10-22T07:54:20;98377.69;;;11.92;100.00
65897;BME280;52677;50.898;10.854;2022-10-22T07:56:20;98373.34;;;11.95;100.00
65897;BME280;52677;50.898;10.854;2022-10-22T07:58:20;98373.78;;;12.00;100.00
65897;BME280;52677;50.898;10.854;2022-10-22T08:00:21;98386.06;;;12.06;100.00
65897;BME280;52677;50.898;10.854;2022-10-22T08:02:21;98396.00;;;12.11;100.00
65897;BME280;52677;50.898;10.854;2022-10-22T08:04:21;98394.03;;;12.19;100.00
65897;BME280;52677;50.898;10.854;2022-10-22T08:06:22;98395.25;;;12.28;100.00
65897;BME280;52677;50.898;10.854;2022-10-22T08:08:22;98394.09;;;12.40;100.00
65897;BME280;52677;50.898;10.854;2022-10-22T08:10:22;98396.91;;;12.44;100.00
65897;BME280;52677;50.898;10.854;2022-10-22T08:12:23;98393.31;;;12.43;100.00
65897;BME280;52677;50.898;10.854;2022-10-22T08:14:23;98401.69;;;12.50;100.00
65897;BME280;52677;50.898;10.854;2022-10-22T08:16:23;98391.75;;;12.56;100.00
65897;BME280;52677;50.898;10.854;2022-10-22T08:18:24;98396.16;;;12.68;100.00
65897;BME280;52677;50.898;10.854;2022-10-22T08:20:25;98397.75;;;12.76;100.00
65897;BME280;52677;50.898;10.854;2022-10-22T08:22:25;98399.72;;;12.79;100.00
65897;BME280;52677;50.898;10.854;2022-10-22T08:24:26;98398.94;;;12.82;100.00
65897;BME280;52677;50.898;10.854;2022-10-22T08:26:26;98407.28;;;12.86;100.00
65897;BME280;52677;50.898;10.854;2022-10-22T08:28:26;98401.72;;;12.89;100.00
65897;BME280;52677;50.898;10.854;2022-10-22T08:30:28;98398.56;;;12.94;100.00
65897;BME280;52677;50.898;10.854;2022-10-22T08:32:29;98402.56;;;13.08;100.00
65897;BME280;52677;50.898;10.854;2022-10-22T08:34:29;98408.88;;;13.15;100.00
65897;BME280;52677;50.898;10.854;2022-10-22T08:36:30;98412.88;;;13.29;100.00
65897;BME280;52677;50.898;10.854;2022-10-22T08:38:30;98408.13;;;13.36;100.00
65897;BME280;52677;50.898;10.854;2022-10-22T08:40:33;98406.13;;;13.44;100.00
65897;BME280;52677;50.898;10.854;2022-10-22T08:49:16;98401.72;;;13.75;100.00
65897;BME280;52677;50.898;10.854;2022-10-22T08:51:20;98414.75;;;13.89;100.00
65897;BME280;52677;50.898;10.854;2022-10-22T08:53:28;98418.31;;;14.00;100.00
65897;BME280;52677;50.898;10.854;2022-10-22T08:55:32;98405.56;;;14.06;99.31
65897;BME280;52677;50.898;10.854;2022-10-22T08:59:55;98417.09;;;14.15;95.11
65897;BME280;52677;50.898;10.854;2022-10-22T09:01:57;98408.31;;;14.13;95.27
65897;BME280;52677;50.898;10.854;2022-10-22T09:04:23;98413.91;;;14.10;96.81
65897;BME280;52677;50.898;10.854;2022-10-22T09:06:31;98417.91;;;14.09;95.15
65897;BME280;52677;50.898;10.854;2022-10-22T09:08:33;98412.75;;;14.07;96.22
65897;BME280;52677;50.898;10.854;2022-10-22T09:10:35;98417.50;;;14.03;97.91
65897;BME280;52677;50.898;10.854;2022-10-22T09:12:37;98421.88;;;14.04;95.98
65897;BME280;52677;50.898;10.854;2022-10-22T09:14:37;98415.53;;;14.03;95.10
65897;BME280;52677;50.898;10.854;2022-10-22T09:17:00;98419.88;;;14.04;93.83
65897;BME280;52677;50.898;10.854;2022-10-22T09:19:24;98412.72;;;14.11;94.64
65897;BME280;52677;50.898;10.854;2022-10-22T09:21:55;98420.66;;;14.16;94.71
65897;BME280;52677;50.898;10.854;2022-10-22T09:24:11;98411.91;;;14.14;95.98
65897;BME280;52677;50.898;10.854;2022-10-22T09:26:14;98419.47;;;14.13;96.82
65897;BME280;52677;50.898;10.854;2022-10-22T09:28:15;98415.53;;;14.07;97.51
65897;BME280;52677;50.898;10.854;2022-10-22T09:30:21;98421.09;;;14.03;96.78
65897;BME280;52677;50.898;10.854;2022-10-22T09:32:22;98427.81;;;14.10;96.17
65897;BME280;52677;50.898;10.854;2022-10-22T09:34:22;98435.34;;;14.20;94.34
65897;BME280;52677;50.898;10.854;2022-10-22T09:36:22;98433.34;;;14.24;94.68
65897;BME280;52677;50.898;10.854;2022-10-22T09:38:32;98432.13;;;14.32;95.45
65897;BME280;52677;50.898;10.854;2022-10-22T09:40:45;98438.03;;;14.38;95.55
65897;BME280;52677;50.898;10.854;2022-10-22T09:42:46;98448.38;;;14.41;93.77
65897;BME280;52677;50.898;10.854;2022-10-22T09:44:55;98441.22;;;14.50;92.37
65897;BME280;52677;50.898;10.854;2022-10-22T09:46:56;98451.09;;;14.62;92.64
65897;BME280;52677;50.898;10.854;2022-10-22T09:49:02;98454.25;;;14.64;92.09
65897;BME280;52677;50.898;10.854;2022-10-22T09:53:17;98469.72;;;14.76;91.05
65897;BME280;52677;50.898;10.854;2022-10-22T09:55:18;98470.84;;;14.85;91.57
65897;BME280;52677;50.898;10.854;2022-10-22T09:57:23;98470.47;;;14.83;91.73
65897;BME280;52677;50.898;10.854;2022-10-22T09:59:27;98480.03;;;14.82;90.47
65897;BME280;52677;50.898;10.854;2022-10-22T10:01:34;98476.84;;;14.84;92.25
65897;BME280;52677;50.898;10.854;2022-10-22T10:03:34;98468.47;;;14.84;93.47
65897;BME280;52677;50.898;10.854;2022-10-22T10:05:35;98480.38;;;14.92;93.36
65897;BME280;52677;50.898;10.854;2022-10-22T10:07:36;98480.75;;;14.94;92.57
65897;BME280;52677;50.898;10.854;2022-10-22T10:09:36;98468.00;;;15.00;90.96
65897;BME280;52677;50.898;10.854;2022-10-22T10:11:45;98473.91;;;15.05;90.94
65897;BME280;52677;50.898;10.854;2022-10-22T10:16:23;98480.63;;;15.11;91.82
65897;BME280;52677;50.898;10.854;2022-10-22T10:18:38;98475.09;;;15.08;91.78
65897;BME280;52677;50.898;10.854;2022-10-22T10:23:44;98475.72;;;15.30;91.96
65897;BME280;52677;50.898;10.854;2022-10-22T10:25:40;98478.00;;;15.45;91.09
65897;BME280;52677;50.898;10.854;2022-10-22T10:27:55;98473.94;;;15.57;90.10
65897;BME280;52677;50.898;10.854;2022-10-22T10:30:13;98483.06;;;15.65;91.09
65897;BME280;52677;50.898;10.854;2022-10-22T10:37:00;98481.34;;;15.78;90.80
65897;BME280;52677;50.898;10.854;2022-10-22T10:39:07;98474.53;;;15.83;90.24
65897;BME280;52677;50.898;10.854;2022-10-22T10:41:31;98478.91;;;15.84;90.23
65897;BME280;52677;50.898;10.854;2022-10-22T10:45:57;98478.22;;;15.72;89.21
65897;BME280;52677;50.898;10.854;2022-10-22T10:48:22;98485.38;;;15.70;90.90
65897;BME280;52677;50.898;10.854;2022-10-22T10:50:38;98484.59;;;15.69;90.72
65897;BME280;52677;50.898;10.854;2022-10-22T10:52:54;98481.41;;;15.71;88.75
65897;BME280;52677;50.898;10.854;2022-10-22T10:57:33;98490.16;;;15.73;88.72
65897;BME280;52677;50.898;10.854;2022-10-22T10:59:56;98492.97;;;15.69;87.74
65897;BME280;52677;50.898;10.854;2022-10-22T11:04:44;98493.75;;;15.70;88.02
65897;BME280;52677;50.898;10.854;2022-10-22T11:06:51;98480.53;;;15.78;88.01
65897;BME280;52677;50.898;10.854;2022-10-22T11:09:02;98483.38;;;15.74;88.28
65897;BME280;52677;50.898;10.854;2022-10-22T11:11:17;98473.75;;;15.79;86.99
65897;BME280;52677;50.898;10.854;2022-10-22T11:13:38;98485.69;;;15.83;86.52
65897;BME280;52677;50.898;10.854;2022-10-22T11:15:43;98480.47;;;15.85;85.94
65897;BME280;52677;50.898;10.854;2022-10-22T11:17:47;98486.84;;;15.89;85.58
65897;BME280;52677;50.898;10.854;2022-10-22T11:24:33;98471.28;;;15.88;84.57
65897;BME280;52677;50.898;10.854;2022-10-22T11:27:02;98477.66;;;15.88;84.60
65897;BME280;52677;50.898;10.854;2022-10-22T11:29:06;98468.91;;;15.86;86.46